Time;durP1;ratioP1;P1;durP2;ratioP2;P2;SDS_P1;SDS_P2;PMS_P1;PMS_P2;Temp;Humidity;BMP_temperature;BMP_pressure;BME280_temperature;BME280_humidity;BME280_pressure;Samples;Min_cycle;Max_cycle;Signal;HPM_P1;HPM_P2
2022/05/09 00:01:47;;;;;;;9.05;1.60;;;9.30;95.70;;;;;;4982906;28;20050;-42
2022/05/09 00:04:12;;;;;;;10.77;2.25;;;9.20;95.90;;;;;;4986320;28;20049;-42
2022/05/09 00:06:38;;;;;;;10.82;1.83;;;9.20;95.90;;;;;;4986308;28;20045;-46
2022/05/09 00:09:04;;;;;;;9.68;2.10;;;9.20;96.50;;;;;;4982382;28;20121;-45
2022/05/09 00:11:31;;;;;;;10.05;1.88;;;9.20;96.00;;;;;;4987405;28;20089;-44
2022/05/09 00:13:57;;;;;;;8.25;1.85;;;9.20;96.50;;;;;;4978122;28;20038;-41
2022/05/09 00:16:23;;;;;;;4.82;1.40;;;9.10;96.50;;;;;;4984601;28;20077;-50
2022/05/09 00:18:50;;;;;;;7.82;2.00;;;9.10;96.90;;;;;;4982623;28;20070;-48
2022/05/09 00:21:15;;;;;;;7.78;1.70;;;9.10;96.50;;;;;;4985198;28;20046;-45
2022/05/09 00:23:41;;;;;;;7.82;2.42;;;9.00;96.90;;;;;;4969803;28;20057;-43
2022/05/09 00:26:07;;;;;;;5.75;1.70;;;9.00;97.00;;;;;;4983924;28;20058;-45
2022/05/09 00:28:34;;;;;;;9.43;1.85;;;9.00;97.30;;;;;;4984275;28;20184;-42
2022/05/09 00:30:59;;;;;;;7.28;1.80;;;9.00;97.20;;;;;;4978653;28;20129;-42
2022/05/09 00:33:26;;;;;;;9.93;1.98;;;8.90;97.80;;;;;;4950656;28;20118;-43
2022/05/09 00:35:52;;;;;;;6.38;1.58;;;8.90;97.80;;;;;;4983505;28;20080;-43
2022/05/09 00:38:18;;;;;;;11.73;1.75;;;8.90;98.20;;;;;;4982278;28;20157;-42
2022/05/09 00:41:28;;;;;;;12.05;1.90;;;8.80;98.20;;;;;;4990937;28;20102;-45
2022/05/09 00:43:32;;;;;;;8.38;1.45;;;8.80;98.40;;;;;;4990107;28;20074;-39
2022/05/09 00:45:58;;;;;;;9.25;1.80;;;8.80;98.60;;;;;;4986240;28;20558;-42
2022/05/09 00:48:23;;;;;;;11.00;2.10;;;8.80;98.30;;;;;;4988924;28;20039;-45
2022/05/09 00:50:49;;;;;;;7.03;1.65;;;8.70;98.20;;;;;;4989205;28;20038;-42
2022/05/09 00:53:15;;;;;;;8.52;1.92;;;8.70;98.80;;;;;;4986734;28;20303;-45
2022/05/09 00:55:46;;;;;;;8.77;1.80;;;8.70;98.60;;;;;;4986876;28;20054;-43
2022/05/09 00:58:18;;;;;;;9.02;2.08;;;8.70;99.20;;;;;;4989713;28;20197;-46
2022/05/09 01:00:45;;;;;;;11.30;2.38;;;8.70;98.80;;;;;;4981446;28;20066;-45
2022/05/09 01:03:27;;;;;;;7.47;2.05;;;8.60;98.80;;;;;;4986754;28;20046;-50
2022/05/09 01:05:52;;;;;;;15.93;2.65;;;8.60;99.40;;;;;;4988716;28;20172;-43
2022/05/09 01:08:23;;;;;;;7.30;1.98;;;8.60;99.10;;;;;;4987802;28;20133;-46
2022/05/09 01:10:50;;;;;;;9.57;1.92;;;8.60;99.20;;;;;;4971065;28;20046;-44
2022/05/09 01:13:19;;;;;;;7.40;2.03;;;8.50;99.30;;;;;;4986236;28;20046;-42
2022/05/09 01:15:48;;;;;;;7.70;1.80;;;8.50;99.60;;;;;;4982843;28;20502;-43
2022/05/09 01:18:16;;;;;;;9.02;1.70;;;8.50;99.70;;;;;;4985086;28;20050;-43
2022/05/09 01:20:43;;;;;;;5.72;1.80;;;8.50;99.80;;;;;;4988157;28;20074;-43
2022/05/09 01:23:10;;;;;;;10.63;2.05;;;8.50;99.70;;;;;;4988837;28;20042;-48
2022/05/09 01:25:36;;;;;;;7.07;1.63;;;8.40;99.80;;;;;;4983697;28;20715;-43
2022/05/09 01:28:02;;;;;;;8.80;2.25;;;8.40;99.70;;;;;;4965246;28;20487;-42
2022/05/09 01:30:40;;;;;;;14.85;2.05;;;8.40;99.80;;;;;;4986449;28;20054;-44
2022/05/09 01:33:13;;;;;;;7.43;1.85;;;8.40;99.90;;;;;;4987357;28;20493;-42
2022/05/09 01:35:50;;;;;;;8.15;1.95;;;8.40;99.90;;;;;;4983935;28;20126;-43
2022/05/09 01:38:37;;;;;;;11.55;2.30;;;8.40;99.70;;;;;;4986934;28;20566;-43
2022/05/09 01:41:02;;;;;;;4.63;1.42;;;8.40;99.90;;;;;;4986102;28;20038;-41
2022/05/09 01:43:30;;;;;;;12.02;2.20;;;8.40;99.80;;;;;;4988978;28;20806;-44
2022/05/09 01:45:56;;;;;;;10.23;1.90;;;8.40;99.80;;;;;;4986460;28;20160;-43
2022/05/09 01:51:06;;;;;;;8.68;1.88;;;8.30;99.90;;;;;;4982938;28;20491;-43
2022/05/09 01:53:32;;;;;;;6.95;1.77;;;8.30;99.90;;;;;;4970164;28;20034;-42
2022/05/09 01:55:58;;;;;;;8.15;1.92;;;8.30;99.90;;;;;;4987136;28;20034;-43
2022/05/09 01:58:23;;;;;;;7.78;2.08;;;8.20;99.90;;;;;;4985491;28;20054;-44
2022/05/09 02:00:49;;;;;;;7.50;1.70;;;8.10;99.90;;;;;;4986262;28;20043;-50
2022/05/09 02:03:15;;;;;;;10.95;2.00;;;8.10;99.90;;;;;;4986493;28;20078;-45
2022/05/09 02:05:40;;;;;;;7.80;2.28;;;8.10;99.90;;;;;;4987254;28;20100;-43
2022/05/09 02:08:07;;;;;;;10.27;2.63;;;8.10;99.90;;;;;;4984970;28;20157;-44
2022/05/09 02:10:33;;;;;;;9.93;2.28;;;8.00;99.90;;;;;;4985870;28;20050;-43
2022/05/09 02:12:58;;;;;;;12.93;1.80;;;8.00;99.90;;;;;;4988268;28;20046;-42
2022/05/09 02:15:31;;;;;;;8.23;1.77;;;8.00;99.90;;;;;;4987445;28;20038;-46
2022/05/09 02:17:57;;;;;;;12.20;2.33;;;8.00;99.90;;;;;;4982483;28;20530;-46
2022/05/09 02:20:22;;;;;;;8.70;1.63;;;8.00;99.90;;;;;;4987958;28;20042;-44
2022/05/09 02:22:48;;;;;;;6.50;2.28;;;8.00;99.90;;;;;;4985529;28;20042;-48
2022/05/09 02:25:33;;;;;;;8.93;2.15;;;8.00;99.90;;;;;;4985214;28;20139;-43
2022/05/09 02:28:01;;;;;;;13.13;1.90;;;7.90;99.90;;;;;;4983805;28;20050;-43
2022/05/09 02:30:27;;;;;;;9.48;1.83;;;7.90;99.90;;;;;;4986337;28;20042;-43
2022/05/09 02:32:52;;;;;;;6.50;1.63;;;7.90;99.90;;;;;;4986663;28;20480;-42
2022/05/09 02:35:20;;;;;;;7.72;2.05;;;7.80;99.90;;;;;;4985932;28;20104;-41
2022/05/09 02:37:47;;;;;;;7.00;1.65;;;7.80;99.90;;;;;;4986446;28;20065;-41
2022/05/09 02:40:12;;;;;;;10.27;2.20;;;7.70;99.90;;;;;;4979372;28;20493;-41
2022/05/09 02:42:38;;;;;;;5.47;1.83;;;7.70;99.90;;;;;;4966310;28;20128;-44
2022/05/09 02:45:04;;;;;;;6.15;2.13;;;7.70;99.90;;;;;;4984706;28;20163;-44
2022/05/09 02:47:30;;;;;;;8.90;1.90;;;7.70;99.90;;;;;;4987722;28;20396;-42
2022/05/09 02:49:56;;;;;;;8.52;2.17;;;7.60;99.90;;;;;;4983422;28;20062;-43
2022/05/09 02:52:21;;;;;;;11.15;2.72;;;7.60;99.90;;;;;;4981990;28;20038;-44
2022/05/09 02:54:47;;;;;;;10.13;2.03;;;7.60;99.90;;;;;;4989205;28;20057;-42
2022/05/09 02:57:13;;;;;;;9.35;2.20;;;7.60;99.90;;;;;;4985770;28;20985;-44
2022/05/09 02:59:39;;;;;;;9.27;2.20;;;7.50;99.90;;;;;;4985000;28;20039;-42
2022/05/09 03:02:05;;;;;;;11.07;2.30;;;7.50;99.90;;;;;;4985464;28;20061;-43
2022/05/09 03:04:39;;;;;;;8.00;1.92;;;7.50;99.90;;;;;;4988688;28;20061;-43
2022/05/09 03:07:16;;;;;;;13.05;2.28;;;7.50;99.90;;;;;;4982525;28;20058;-40
2022/05/09 03:09:45;;;;;;;8.70;2.00;;;7.50;99.90;;;;;;4986957;28;20092;-42
2022/05/09 03:12:11;;;;;;;7.50;2.17;;;7.40;99.90;;;;;;4985429;28;20073;-40
2022/05/09 03:14:38;;;;;;;8.02;2.30;;;7.40;99.90;;;;;;4983950;28;20142;-40
2022/05/09 03:17:05;;;;;;;9.68;2.30;;;7.40;99.90;;;;;;4983216;28;20486;-39
2022/05/09 03:19:31;;;;;;;11.00;2.28;;;7.40;99.90;;;;;;4984511;28;20045;-38
2022/05/09 03:21:57;;;;;;;11.52;1.92;;;7.40;99.90;;;;;;4985899;28;20426;-39
2022/05/09 03:24:23;;;;;;;10.13;2.33;;;7.30;99.90;;;;;;4986980;28;21228;-42
2022/05/09 03:26:49;;;;;;;9.13;2.50;;;7.30;99.90;;;;;;4987337;28;20130;-42
2022/05/09 03:29:18;;;;;;;9.40;2.58;;;7.40;99.90;;;;;;4984070;28;20499;-42
2022/05/09 03:31:45;;;;;;;9.35;2.35;;;7.40;99.90;;;;;;4987348;28;20039;-41
2022/05/09 03:34:11;;;;;;;8.00;2.35;;;7.30;99.90;;;;;;4985477;28;20092;-43
2022/05/09 03:36:37;;;;;;;12.43;2.45;;;7.30;99.90;;;;;;4986474;28;20030;-43
2022/05/09 03:39:03;;;;;;;10.93;1.90;;;7.30;99.90;;;;;;4983967;28;20042;-45
2022/05/09 03:41:29;;;;;;;11.43;2.30;;;7.30;99.90;;;;;;4987572;28;20380;-45
2022/05/09 03:43:55;;;;;;;7.72;2.10;;;7.30;99.90;;;;;;4986383;28;20049;-41
2022/05/09 03:46:21;;;;;;;11.65;2.83;;;7.20;99.90;;;;;;4964693;28;20046;-41
2022/05/09 03:48:47;;;;;;;9.88;2.63;;;7.20;99.90;;;;;;4983250;28;20403;-42
2022/05/09 03:51:13;;;;;;;6.47;2.05;;;7.20;99.90;;;;;;4987168;28;20053;-44
2022/05/09 03:53:39;;;;;;;12.13;2.40;;;7.10;99.90;;;;;;4980532;28;20047;-42
2022/05/09 03:56:05;;;;;;;11.75;3.58;;;7.10;99.90;;;;;;4982622;28;20069;-41
2022/05/09 03:58:31;;;;;;;7.80;2.53;;;7.10;99.90;;;;;;4983253;28;20030;-40
2022/05/09 04:00:56;;;;;;;11.68;2.83;;;7.10;99.90;;;;;;4982297;28;20034;-45
2022/05/09 04:03:22;;;;;;;7.78;3.08;;;7.10;99.90;;;;;;4979459;28;20526;-41
2022/05/09 04:05:48;;;;;;;6.63;2.45;;;7.00;99.90;;;;;;4985259;28;20125;-43
2022/05/09 04:08:17;;;;;;;7.78;2.70;;;7.00;99.90;;;;;;4984591;28;20038;-41
2022/05/09 04:10:45;;;;;;;9.15;2.50;;;7.00;99.90;;;;;;4985036;28;20133;-39
2022/05/09 04:13:11;;;;;;;13.07;2.92;;;7.00;99.90;;;;;;4983455;28;20038;-40
2022/05/09 04:18:26;;;;;;;11.55;2.95;;;7.00;99.90;;;;;;4961627;28;20047;-41
2022/05/09 04:20:52;;;;;;;8.73;2.53;;;7.00;99.90;;;;;;4984440;28;20185;-41
2022/05/09 04:23:18;;;;;;;9.45;2.50;;;6.90;99.90;;;;;;4983507;28;20096;-42
2022/05/09 04:25:46;;;;;;;7.88;2.80;;;6.90;99.90;;;;;;4981456;28;20046;-39
2022/05/09 04:28:12;;;;;;;7.22;2.58;;;6.90;99.90;;;;;;4965340;28;20073;-40
2022/05/09 04:30:39;;;;;;;10.02;3.15;;;6.90;99.90;;;;;;4983527;28;20403;-41
2022/05/09 04:33:06;;;;;;;7.88;3.20;;;7.00;99.90;;;;;;4962476;28;20750;-42
2022/05/09 04:35:34;;;;;;;12.35;2.78;;;7.00;99.90;;;;;;4985647;28;20477;-39
2022/05/09 04:38:00;;;;;;;8.73;2.95;;;7.00;99.90;;;;;;4985324;28;20046;-41
2022/05/09 04:40:29;;;;;;;7.68;2.70;;;7.00;99.90;;;;;;4984070;28;20132;-39
2022/05/09 04:42:56;;;;;;;8.07;2.47;;;7.10;99.90;;;;;;4984973;28;20084;-39
2022/05/09 04:45:23;;;;;;;9.25;2.28;;;7.10;99.90;;;;;;4966149;28;20121;-44
2022/05/09 04:47:51;;;;;;;8.82;2.53;;;7.10;99.90;;;;;;4983700;28;20384;-40
2022/05/09 04:50:20;;;;;;;9.10;2.25;;;7.20;99.90;;;;;;4982061;28;20078;-48
2022/05/09 04:52:47;;;;;;;11.70;2.80;;;7.20;99.90;;;;;;4981252;28;20566;-41
2022/05/09 04:55:14;;;;;;;7.82;2.70;;;7.30;99.90;;;;;;4984902;28;20061;-45
2022/05/09 04:57:40;;;;;;;10.38;2.72;;;7.30;99.90;;;;;;4966426;28;20070;-39
2022/05/09 05:00:14;;;;;;;11.75;2.90;;;7.40;99.90;;;;;;4982227;28;20471;-41
2022/05/09 05:02:40;;;;;;;12.50;2.90;;;7.50;99.90;;;;;;4983495;28;20053;-39
2022/05/09 05:05:07;;;;;;;11.98;3.10;;;7.50;99.90;;;;;;4985553;28;20046;-40
2022/05/09 05:07:33;;;;;;;10.52;3.30;;;7.60;99.90;;;;;;4979847;28;20038;-45
2022/05/09 05:09:59;;;;;;;10.57;2.55;;;7.60;99.90;;;;;;4964748;28;20075;-40
2022/05/09 05:12:25;;;;;;;10.90;2.60;;;7.70;99.90;;;;;;4966902;28;20061;-41
2022/05/09 05:14:50;;;;;;;9.80;3.10;;;7.70;99.90;;;;;;4969031;28;20070;-40
2022/05/09 05:17:16;;;;;;;11.57;3.70;;;7.80;99.90;;;;;;4960234;28;20456;-41
2022/05/09 05:19:44;;;;;;;8.25;2.72;;;7.80;99.90;;;;;;4984068;28;20037;-41
2022/05/09 05:22:15;;;;;;;8.57;2.45;;;7.90;99.90;;;;;;4980905;28;20070;-42
2022/05/09 05:24:44;;;;;;;10.40;2.78;;;7.90;99.90;;;;;;4984076;28;20046;-39
2022/05/09 05:27:11;;;;;;;9.10;2.88;;;8.00;99.90;;;;;;4982897;28;20034;-39
2022/05/09 05:29:37;;;;;;;11.80;2.85;;;8.10;99.90;;;;;;4983063;28;20038;-41
2022/05/09 05:32:26;;;;;;;13.55;3.30;;;8.10;99.90;;;;;;4986515;28;20038;-39
2022/05/09 05:34:52;;;;;;;9.85;2.92;;;8.20;99.90;;;;;;4988986;28;20046;-41
2022/05/09 05:37:18;;;;;;;11.93;2.88;;;8.30;99.90;;;;;;4984465;28;20110;-39
2022/05/09 05:39:45;;;;;;;10.38;3.17;;;8.40;99.90;;;;;;4985023;28;20153;-40
2022/05/09 05:42:12;;;;;;;10.63;3.03;;;8.40;99.90;;;;;;4986816;28;20049;-39
2022/05/09 05:44:38;;;;;;;11.02;3.00;;;8.50;99.90;;;;;;4985606;28;20232;-39
2022/05/09 05:47:06;;;;;;;11.00;3.00;;;8.60;99.90;;;;;;4980073;28;20038;-43
2022/05/09 05:49:32;;;;;;;9.32;2.58;;;8.70;99.90;;;;;;4986039;28;20046;-40
2022/05/09 05:52:02;;;;;;;11.60;3.60;;;8.70;99.90;;;;;;4983401;28;20042;-41
2022/05/09 05:54:28;;;;;;;13.35;3.25;;;8.80;99.90;;;;;;4983914;28;20098;-39
2022/05/09 05:56:54;;;;;;;11.20;2.90;;;8.90;99.90;;;;;;4987062;28;20045;-40
2022/05/09 05:59:20;;;;;;;9.00;2.92;;;8.90;99.90;;;;;;4989357;28;20050;-40
2022/05/09 06:01:45;;;;;;;7.35;3.22;;;9.00;99.90;;;;;;4966819;28;20053;-40
2022/05/09 06:04:11;;;;;;;9.98;3.13;;;9.10;99.90;;;;;;4988392;28;20089;-46
2022/05/09 06:06:36;;;;;;;10.52;3.33;;;9.20;99.90;;;;;;4986490;28;20030;-41
2022/05/09 06:09:02;;;;;;;7.60;3.22;;;9.40;99.90;;;;;;4983985;28;20404;-41
2022/05/09 06:11:28;;;;;;;8.82;3.50;;;9.40;99.90;;;;;;4966051;28;20391;-41
2022/05/09 06:13:54;;;;;;;8.43;2.63;;;9.50;99.90;;;;;;4986774;28;20101;-41
2022/05/09 06:16:19;;;;;;;11.35;3.67;;;9.60;99.90;;;;;;4952401;28;20042;-40
2022/05/09 06:18:50;;;;;;;12.45;3.28;;;9.70;99.90;;;;;;4983948;28;20460;-39
2022/05/09 06:21:15;;;;;;;10.27;3.05;;;9.80;99.90;;;;;;4982498;28;20073;-41
2022/05/09 06:23:41;;;;;;;18.52;3.40;;;10.00;99.90;;;;;;4980714;28;20508;-39
2022/05/09 06:26:07;;;;;;;10.38;2.70;;;10.10;99.90;;;;;;4962522;28;20128;-39
2022/05/09 06:28:32;;;;;;;10.95;2.40;;;10.30;99.90;;;;;;4986091;28;20089;-39
2022/05/09 06:30:58;;;;;;;10.95;2.67;;;10.80;99.90;;;;;;4983491;28;20467;-43
2022/05/09 06:33:25;;;;;;;11.98;2.80;;;11.20;98.80;;;;;;4983589;28;20042;-40
2022/05/09 06:35:52;;;;;;;9.30;2.30;;;11.50;97.80;;;;;;4987128;28;20038;-40
2022/05/09 06:38:20;;;;;;;10.80;3.28;;;11.80;96.10;;;;;;4989500;28;20709;-39
2022/05/09 06:40:46;;;;;;;14.98;3.22;;;12.10;94.90;;;;;;4987733;28;20100;-41
2022/05/09 06:43:12;;;;;;;9.70;2.65;;;12.30;93.70;;;;;;4983807;28;20050;-39
2022/05/09 06:45:38;;;;;;;11.63;3.13;;;12.50;92.60;;;;;;4984225;28;20046;-44
2022/05/09 06:48:05;;;;;;;7.78;2.63;;;12.60;92.50;;;;;;4986599;28;20518;-39
2022/05/09 06:50:33;;;;;;;7.25;2.20;;;12.90;91.20;;;;;;4979669;28;20042;-41
2022/05/09 06:53:00;;;;;;;10.90;2.70;;;13.10;90.40;;;;;;4981680;28;20391;-39
2022/05/09 06:55:26;;;;;;;8.40;2.45;;;13.20;90.00;;;;;;4982848;28;20162;-39
2022/05/09 06:57:52;;;;;;;9.77;2.40;;;13.30;88.70;;;;;;4986442;28;20125;-39
2022/05/09 07:00:23;;;;;;;10.00;2.58;;;13.50;87.40;;;;;;4983695;28;20073;-39
2022/05/09 07:02:50;;;;;;;8.15;3.30;;;13.60;87.10;;;;;;4987370;28;20526;-40
2022/05/09 07:05:18;;;;;;;8.88;2.30;;;13.60;88.10;;;;;;4983382;28;20561;-40
2022/05/09 07:07:45;;;;;;;7.05;2.05;;;13.50;87.50;;;;;;4965455;28;20121;-39
2022/05/09 07:10:12;;;;;;;5.88;2.15;;;13.50;87.40;;;;;;4979870;28;20034;-39
2022/05/09 07:12:53;;;;;;;7.82;2.53;;;13.60;86.40;;;;;;4983684;28;20353;-39
2022/05/09 07:15:23;;;;;;;8.15;2.40;;;13.70;84.70;;;;;;4984995;28;21492;-40
2022/05/09 07:17:50;;;;;;;8.32;2.35;;;13.70;85.40;;;;;;4976559;28;20424;-40
2022/05/09 07:20:17;;;;;;;14.15;2.90;;;13.80;84.50;;;;;;4980696;28;20038;-40
2022/05/09 07:22:44;;;;;;;9.00;3.13;;;13.80;85.50;;;;;;4982268;28;20132;-41
2022/05/09 07:25:15;;;;;;;11.38;3.25;;;13.80;86.30;;;;;;4983575;28;20095;-43
2022/05/09 07:27:42;;;;;;;11.32;2.53;;;13.60;86.50;;;;;;4983586;28;20085;-39
2022/05/09 07:30:13;;;;;;;10.50;3.55;;;13.50;87.70;;;;;;4980275;28;20133;-39
2022/05/09 07:32:39;;;;;;;10.70;2.42;;;13.70;87.70;;;;;;4982196;28;20038;-42
2022/05/09 07:35:07;;;;;;;8.00;2.60;;;13.90;86.60;;;;;;4967371;28;20070;-40
2022/05/09 07:37:33;;;;;;;8.82;2.95;;;14.10;84.70;;;;;;4980650;28;20488;-40
2022/05/09 07:39:59;;;;;;;7.85;2.05;;;14.20;83.80;;;;;;4979814;28;20038;-41
2022/05/09 07:42:24;;;;;;;8.95;2.95;;;14.30;82.20;;;;;;4963516;28;20042;-39
2022/05/09 07:44:52;;;;;;;12.80;3.28;;;14.40;81.70;;;;;;4963460;28;20423;-41
2022/05/09 07:47:18;;;;;;;7.15;1.98;;;14.40;81.70;;;;;;4984868;28;20038;-39
2022/05/09 07:49:45;;;;;;;9.48;3.17;;;14.40;81.30;;;;;;4975029;28;20043;-40
2022/05/09 07:52:11;;;;;;;4.97;1.88;;;14.50;80.70;;;;;;4981436;28;20118;-40
2022/05/09 07:54:37;;;;;;;8.85;2.47;;;14.70;78.40;;;;;;4986415;28;20054;-39
2022/05/09 07:57:03;;;;;;;8.93;2.28;;;14.90;78.70;;;;;;4983749;28;20038;-40
2022/05/09 07:59:29;;;;;;;7.15;2.60;;;15.10;77.90;;;;;;4986460;28;20117;-40
2022/05/09 08:01:55;;;;;;;8.57;2.25;;;15.20;76.90;;;;;;4981200;28;20142;-40
2022/05/09 08:04:21;;;;;;;10.82;1.90;;;15.20;76.70;;;;;;4965512;28;20121;-40
2022/05/09 08:06:47;;;;;;;7.88;2.70;;;15.40;74.40;;;;;;4986146;28;20096;-39
2022/05/09 08:09:13;;;;;;;10.48;2.75;;;15.50;73.60;;;;;;4962831;28;20467;-40
2022/05/09 08:11:39;;;;;;;6.93;1.85;;;15.50;72.40;;;;;;4966406;28;20050;-40
2022/05/09 08:14:07;;;;;;;5.60;1.80;;;15.60;72.10;;;;;;4970051;28;20530;-40
2022/05/09 08:16:33;;;;;;;12.07;2.53;;;15.70;71.30;;;;;;4982210;28;20396;-41
2022/05/09 08:19:00;;;;;;;7.40;2.70;;;15.80;69.80;;;;;;4965973;28;20034;-41
2022/05/09 08:21:26;;;;;;;12.43;2.72;;;15.90;70.70;;;;;;4978684;28;20054;-41
2022/05/09 08:23:52;;;;;;;9.07;2.28;;;15.90;70.50;;;;;;4984044;28;20046;-40
2022/05/09 08:26:21;;;;;;;10.23;2.50;;;16.00;70.30;;;;;;4982096;28;20038;-40
2022/05/09 08:28:48;;;;;;;10.13;2.47;;;16.00;70.10;;;;;;4982666;28;20085;-40
2022/05/09 08:31:18;;;;;;;7.72;2.28;;;16.10;68.80;;;;;;4982827;28;20046;-40
2022/05/09 08:33:46;;;;;;;6.28;2.40;;;16.20;68.00;;;;;;4964862;28;20046;-40
2022/05/09 08:36:12;;;;;;;8.20;2.10;;;16.30;66.90;;;;;;4980920;28;20476;-40
2022/05/09 08:38:38;;;;;;;6.82;2.03;;;16.40;66.50;;;;;;4976299;28;20054;-40
2022/05/09 08:41:14;;;;;;;10.05;2.05;;;16.60;65.20;;;;;;4983449;28;20038;-41
2022/05/09 08:43:55;;;;;;;6.57;2.55;;;16.70;63.20;;;;;;4978310;28;20042;-41
2022/05/09 08:46:45;;;;;;;9.65;2.55;;;16.90;62.90;;;;;;4965495;28;20065;-44
2022/05/09 08:49:34;;;;;;;10.25;2.67;;;17.00;60.50;;;;;;4980839;28;20038;-41
2022/05/09 08:52:25;;;;;;;8.32;2.55;;;17.20;59.40;;;;;;4979749;28;20467;-43
2022/05/09 08:54:53;;;;;;;7.93;1.92;;;17.30;54.60;;;;;;4984319;28;20043;-40
2022/05/09 08:57:23;;;;;;;7.35;2.00;;;17.30;57.30;;;;;;4976987;28;20403;-42
2022/05/09 09:00:07;;;;;;;7.85;2.15;;;17.40;55.30;;;;;;4983251;28;20034;-41
2022/05/09 09:02:40;;;;;;;5.18;1.80;;;17.50;54.70;;;;;;4982367;28;20407;-45
2022/05/09 09:05:11;;;;;;;18.52;2.50;;;17.60;54.20;;;;;;4984452;28;20048;-41
2022/05/09 09:07:59;;;;;;;9.43;1.92;;;17.70;53.90;;;;;;4986598;28;20053;-41
2022/05/09 09:10:39;;;;;;;6.72;1.83;;;17.90;51.10;;;;;;4982985;28;20046;-41
2022/05/09 09:13:44;;;;;;;6.55;1.20;;;18.00;50.90;;;;;;4987943;28;20419;-42
2022/05/09 09:16:24;;;;;;;5.50;1.27;;;18.00;48.60;;;;;;4952286;28;20055;-41
2022/05/09 09:19:23;;;;;;;7.00;2.00;;;18.10;49.10;;;;;;4989725;28;20479;-41
2022/05/09 09:22:21;;;;;;;4.82;1.13;;;18.20;45.60;;;;;;4990186;28;20046;-43
2022/05/09 09:25:02;;;;;;;6.43;1.83;;;18.30;47.50;;;;;;4986886;28;20478;-41
2022/05/09 09:27:42;;;;;;;5.28;1.50;;;18.40;46.70;;;;;;4984149;28;20093;-41
2022/05/09 09:30:18;;;;;;;7.60;2.03;;;18.60;46.90;;;;;;4969275;28;20092;-42
2022/05/09 09:32:59;;;;;;;7.88;1.80;;;18.70;46.00;;;;;;4956835;28;20108;-42
2022/05/09 09:35:37;;;;;;;5.63;1.38;;;18.80;46.10;;;;;;4966324;28;20118;-41
2022/05/09 09:38:12;;;;;;;6.10;1.50;;;18.90;45.20;;;;;;4981602;28;20034;-41
2022/05/09 09:40:38;;;;;;;7.75;1.67;;;18.90;45.50;;;;;;4982811;28;20634;-42
2022/05/09 09:43:04;;;;;;;10.57;2.10;;;19.00;45.10;;;;;;4984390;28;20115;-41
2022/05/09 09:45:30;;;;;;;8.60;1.70;;;19.20;44.80;;;;;;4984043;28;20031;-41
2022/05/09 09:48:12;;;;;;;4.53;1.40;;;19.20;44.50;;;;;;4984127;28;20034;-42
2022/05/09 09:51:04;;;;;;;;;;;19.40;43.10;;;;;;4984084;28;20444;-43
2022/05/09 09:54:01;;;;;;;4.78;1.00;;;19.40;42.10;;;;;;4978024;28;19922;-42
2022/05/09 09:56:31;;;;;;;7.82;1.55;;;19.40;42.00;;;;;;4977671;28;20440;-42
2022/05/09 09:59:21;;;;;;;5.72;1.52;;;19.60;43.60;;;;;;4968343;28;20042;-42
2022/05/09 10:02:25;;;;;;;6.63;1.70;;;19.80;43.00;;;;;;4983310;28;20038;-41
2022/05/09 10:04:54;;;;;;;8.02;1.73;;;20.00;43.30;;;;;;4982921;28;20035;-42
2022/05/09 10:07:26;;;;;;;7.25;2.17;;;20.20;43.10;;;;;;4967028;28;20038;-41
2022/05/09 10:10:18;;;;;;;5.22;1.30;;;20.30;43.20;;;;;;4983257;28;20488;-41
2022/05/09 10:12:50;;;;;;;5.53;1.48;;;20.40;41.80;;;;;;4986237;28;20077;-41
2022/05/09 10:15:26;;;;;;;5.22;1.30;;;20.50;42.60;;;;;;4984170;28;20038;-43
2022/05/09 10:17:52;;;;;;;6.80;1.73;;;20.60;42.10;;;;;;4967237;28;20118;-43
2022/05/09 10:20:27;;;;;;;6.53;1.95;;;20.60;42.20;;;;;;4981386;28;20125;-41
2022/05/09 10:26:27;;;;;;;11.80;1.80;;;20.80;42.00;;;;;;4975519;28;20660;-41
2022/05/09 10:28:59;;;;;;;9.05;1.67;;;20.70;39.60;;;;;;4979039;28;20035;-41
2022/05/09 10:31:33;;;;;;;6.50;1.50;;;20.70;40.80;;;;;;4983059;28;20117;-40
2022/05/09 10:34:17;;;;;;;14.07;2.25;;;20.70;40.90;;;;;;4978543;28;20086;-41
2022/05/09 10:36:46;;;;;;;8.38;1.80;;;20.80;40.90;;;;;;4984866;28;20052;-40
2022/05/09 10:39:26;;;;;;;6.93;1.70;;;20.80;41.10;;;;;;4986539;28;20062;-39
2022/05/09 10:42:15;;;;;;;4.50;1.05;;;20.80;40.30;;;;;;4969121;28;20125;-41
2022/05/09 10:45:04;;;;;;;6.90;1.40;;;20.90;38.30;;;;;;4980330;28;20045;-40
2022/05/09 10:47:54;;;;;;;3.38;1.40;;;21.10;39.00;;;;;;4975753;28;20109;-43
2022/05/09 10:50:34;;;;;;;8.30;1.40;;;21.20;37.90;;;;;;4981099;28;20511;-43
2022/05/09 10:53:31;;;;;;;7.47;1.63;;;21.20;38.00;;;;;;4981809;28;20042;-42
2022/05/09 10:56:10;;;;;;;5.82;1.77;;;21.40;39.20;;;;;;4987669;28;20062;-42
2022/05/09 10:58:51;;;;;;;7.45;1.77;;;21.50;39.00;;;;;;4989098;28;20582;-43
2022/05/09 11:01:33;;;;;;;7.10;1.88;;;21.50;38.20;;;;;;4986945;28;20116;-40
2022/05/09 11:04:00;;;;;;;7.23;1.70;;;21.50;38.70;;;;;;4984304;28;20046;-39
2022/05/09 11:07:03;;;;;;;6.78;2.05;;;21.40;39.10;;;;;;4980447;28;20049;-39
2022/05/09 11:10:02;;;;;;;5.00;1.30;;;21.30;38.50;;;;;;4978007;28;20057;-41
2022/05/09 11:13:02;;;;;;;9.10;1.70;;;21.30;38.50;;;;;;4984096;28;20578;-41
2022/05/09 11:15:37;;;;;;;5.63;1.90;;;21.40;39.30;;;;;;4979284;28;20067;-42
2022/05/09 11:18:20;;;;;;;7.93;1.67;;;21.40;38.80;;;;;;4980408;28;20136;-41
2022/05/09 11:21:06;;;;;;;5.35;1.83;;;21.40;39.30;;;;;;4982104;28;20052;-43
2022/05/09 11:23:59;;;;;;;6.18;1.90;;;21.40;39.30;;;;;;4968841;28;20034;-43
2022/05/09 11:26:51;;;;;;;4.72;1.70;;;21.40;39.60;;;;;;4987464;28;20057;-44
2022/05/09 11:29:35;;;;;;;9.02;1.98;;;21.50;39.50;;;;;;4984776;28;20046;-44
2022/05/09 11:32:17;;;;;;;6.68;1.83;;;21.40;40.20;;;;;;4979902;28;20046;-42
2022/05/09 11:35:17;;;;;;;7.88;2.15;;;21.60;39.40;;;;;;4982231;28;20455;-43
2022/05/09 11:38:03;;;;;;;7.82;2.10;;;21.60;39.70;;;;;;4978136;28;20137;-43
2022/05/09 11:40:46;;;;;;;7.35;2.10;;;21.70;39.90;;;;;;4982634;28;20065;-43
2022/05/09 11:43:28;;;;;;;6.72;1.77;;;21.90;39.80;;;;;;4980917;28;20466;-43
2022/05/09 11:45:59;;;;;;;5.47;1.85;;;21.90;39.40;;;;;;4982888;28;20041;-43
2022/05/09 11:48:53;;;;;;;7.88;2.58;;;21.90;38.70;;;;;;4981088;28;20510;-41
2022/05/09 11:51:30;;;;;;;8.15;2.10;;;22.00;39.20;;;;;;4983038;28;20124;-44
2022/05/09 11:54:00;;;;;;;6.68;1.80;;;22.00;39.80;;;;;;4978929;28;20513;-41
2022/05/09 11:56:28;;;;;;;7.30;2.03;;;22.10;39.30;;;;;;4980589;28;20065;-44
2022/05/09 11:58:55;;;;;;;6.63;2.00;;;22.10;39.30;;;;;;4981018;28;20038;-41
2022/05/09 12:02:00;;;;;;;9.57;2.10;;;22.10;38.80;;;;;;4980073;28;20074;-46
2022/05/09 12:04:44;;;;;;;5.38;1.92;;;22.10;39.00;;;;;;4963767;28;20050;-42
2022/05/09 12:07:22;;;;;;;6.18;2.00;;;22.20;39.70;;;;;;4985589;28;20105;-42
2022/05/09 12:09:54;;;;;;;4.05;1.55;;;22.30;38.70;;;;;;4984616;28;20046;-43
2022/05/09 12:12:37;;;;;;;5.82;1.40;;;22.30;38.20;;;;;;4982285;28;20046;-43
2022/05/09 12:15:06;;;;;;;7.20;1.92;;;22.40;37.60;;;;;;4979596;28;20042;-42
2022/05/09 12:17:37;;;;;;;5.03;1.52;;;22.50;37.90;;;;;;4981780;28;20493;-40
2022/05/09 12:20:37;;;;;;;4.65;1.50;;;22.50;37.70;;;;;;4982790;28;20049;-41
2022/05/09 12:23:05;;;;;;;5.75;1.65;;;22.50;37.50;;;;;;4937361;28;20070;-42
2022/05/09 12:25:34;;;;;;;5.15;1.75;;;22.70;37.90;;;;;;4978938;28;20420;-41
2022/05/09 12:28:26;;;;;;;8.25;1.80;;;22.80;38.10;;;;;;4978530;28;20480;-41
2022/05/09 12:30:52;;;;;;;5.40;1.92;;;22.80;37.90;;;;;;4986335;28;20066;-44
2022/05/09 12:33:24;;;;;;;5.63;1.63;;;22.80;37.90;;;;;;4976874;28;20046;-43
2022/05/09 12:35:53;;;;;;;7.88;2.20;;;22.90;37.80;;;;;;4981849;28;20038;-42
2022/05/09 12:38:26;;;;;;;6.35;1.75;;;23.00;37.40;;;;;;4984109;28;20042;-42
2022/05/09 12:41:00;;;;;;;13.32;3.28;;;23.10;37.20;;;;;;4970878;28;20038;-40
2022/05/09 12:43:29;;;;;;;7.30;2.22;;;23.20;37.20;;;;;;4988226;28;20071;-42
2022/05/09 12:45:56;;;;;;;6.60;2.10;;;23.10;36.90;;;;;;4981325;28;20035;-45
2022/05/09 12:48:22;;;;;;;7.28;1.90;;;23.10;36.20;;;;;;4984108;28;20096;-43
2022/05/09 12:50:48;;;;;;;15.55;3.05;;;23.20;36.50;;;;;;4983957;28;20030;-45
2022/05/09 12:53:17;;;;;;;7.07;2.53;;;23.30;36.40;;;;;;4984987;28;20053;-43
2022/05/09 12:55:52;;;;;;;8.55;2.08;;;23.40;36.20;;;;;;4984602;28;20046;-45
2022/05/09 12:58:27;;;;;;;16.10;2.42;;;23.30;36.10;;;;;;4982171;28;20410;-46
2022/05/09 13:01:03;;;;;;;13.07;2.40;;;23.40;36.00;;;;;;4973396;28;20089;-47
2022/05/09 13:03:28;;;;;;;5.30;1.77;;;23.60;36.40;;;;;;4981741;28;20491;-46
2022/05/09 13:05:54;;;;;;;6.97;2.00;;;23.70;35.80;;;;;;4964540;28;20093;-47
2022/05/09 13:08:20;;;;;;;6.53;1.90;;;23.70;35.40;;;;;;4981577;28;20038;-45
2022/05/09 13:10:56;;;;;;;6.80;2.17;;;23.70;35.20;;;;;;4983433;28;20144;-42
2022/05/09 13:13:31;;;;;;;9.50;1.88;;;23.70;35.60;;;;;;4987898;28;20035;-48
2022/05/09 13:15:58;;;;;;;5.00;1.63;;;23.80;35.50;;;;;;4981419;28;20035;-42
2022/05/09 13:18:27;;;;;;;7.55;1.88;;;24.00;35.90;;;;;;4986458;28;20129;-46